sensor_id;sensor_type;location;lat;lon;timestamp;P1;durP1;ratioP1;P2;durP2;ratioP2
62554;SDS011;48610;52.144;8.624;2024-03-02T00:01:00;8.60;;;5.10;;
62554;SDS011;48610;52.144;8.624;2024-03-02T00:04:02;11.90;;;4.85;;
62554;SDS011;48610;52.144;8.624;2024-03-02T00:07:06;8.85;;;4.90;;
62554;SDS011;48610;52.144;8.624;2024-03-02T00:10:08;7.07;;;4.93;;
62554;SDS011;48610;52.144;8.624;2024-03-02T00:13:12;7.03;;;4.75;;
62554;SDS011;48610;52.144;8.624;2024-03-02T00:16:13;8.98;;;5.47;;
62554;SDS011;48610;52.144;8.624;2024-03-02T00:19:13;6.78;;;5.20;;
62554;SDS011;48610;52.144;8.624;2024-03-02T00:22:14;7.38;;;5.15;;
62554;SDS011;48610;52.144;8.624;2024-03-02T00:25:15;7.43;;;5.60;;
62554;SDS011;48610;52.144;8.624;2024-03-02T00:28:17;8.07;;;5.38;;
62554;SDS011;48610;52.144;8.624;2024-03-02T00:31:24;7.35;;;5.00;;
62554;SDS011;48610;52.144;8.624;2024-03-02T00:34:25;7.03;;;5.28;;
62554;SDS011;48610;52.144;8.624;2024-03-02T00:37:26;7.03;;;5.13;;
62554;SDS011;48610;52.144;8.624;2024-03-02T00:40:27;7.55;;;4.88;;
62554;SDS011;48610;52.144;8.624;2024-03-02T00:46:33;6.05;;;4.60;;
62554;SDS011;48610;52.144;8.624;2024-03-02T00:49:38;7.90;;;5.20;;
62554;SDS011;48610;52.144;8.624;2024-03-02T00:52:39;6.88;;;4.72;;
62554;SDS011;48610;52.144;8.624;2024-03-02T00:55:40;6.20;;;4.72;;
62554;SDS011;48610;52.144;8.624;2024-03-02T00:58:44;7.97;;;5.15;;
62554;SDS011;48610;52.144;8.624;2024-03-02T01:01:44;7.65;;;5.82;;
62554;SDS011;48610;52.144;8.624;2024-03-02T01:04:45;8.65;;;5.38;;
62554;SDS011;48610;52.144;8.624;2024-03-02T01:07:46;6.35;;;4.70;;
62554;SDS011;48610;52.144;8.624;2024-03-02T01:10:46;6.75;;;4.85;;
62554;SDS011;48610;52.144;8.624;2024-03-02T01:13:47;6.45;;;4.53;;
62554;SDS011;48610;52.144;8.624;2024-03-02T01:16:48;7.53;;;4.70;;
62554;SDS011;48610;52.144;8.624;2024-03-02T01:19:49;7.97;;;5.00;;
62554;SDS011;48610;52.144;8.624;2024-03-02T01:22:49;7.10;;;4.80;;
62554;SDS011;48610;52.144;8.624;2024-03-02T01:25:51;7.43;;;4.95;;
62554;SDS011;48610;52.144;8.624;2024-03-02T01:28:52;7.45;;;5.35;;
62554;SDS011;48610;52.144;8.624;2024-03-02T01:31:52;8.85;;;5.70;;
62554;SDS011;48610;52.144;8.624;2024-03-02T01:34:53;9.57;;;5.18;;
62554;SDS011;48610;52.144;8.624;2024-03-02T01:37:54;7.68;;;5.00;;
62554;SDS011;48610;52.144;8.624;2024-03-02T01:40:54;7.03;;;4.72;;
62554;SDS011;48610;52.144;8.624;2024-03-02T01:43:56;7.07;;;4.30;;
62554;SDS011;48610;52.144;8.624;2024-03-02T01:46:57;5.90;;;4.55;;
62554;SDS011;48610;52.144;8.624;2024-03-02T01:49:57;3.92;;;3.53;;
62554;SDS011;48610;52.144;8.624;2024-03-02T01:52:59;7.75;;;4.90;;
62554;SDS011;48610;52.144;8.624;2024-03-02T01:56:00;9.40;;;5.05;;
62554;SDS011;48610;52.144;8.624;2024-03-02T01:59:01;7.88;;;4.63;;
62554;SDS011;48610;52.144;8.624;2024-03-02T02:02:02;8.32;;;4.82;;
62554;SDS011;48610;52.144;8.624;2024-03-02T02:05:02;7.45;;;5.22;;
62554;SDS011;48610;52.144;8.624;2024-03-02T02:08:04;6.15;;;4.43;;
62554;SDS011;48610;52.144;8.624;2024-03-02T02:11:05;7.50;;;5.35;;
62554;SDS011;48610;52.144;8.624;2024-03-02T02:14:06;7.78;;;6.25;;
62554;SDS011;48610;52.144;8.624;2024-03-02T02:17:07;8.63;;;6.10;;
62554;SDS011;48610;52.144;8.624;2024-03-02T02:20:07;8.93;;;5.82;;
62554;SDS011;48610;52.144;8.624;2024-03-02T02:23:09;8.57;;;5.55;;
62554;SDS011;48610;52.144;8.624;2024-03-02T02:26:09;7.85;;;5.65;;
62554;SDS011;48610;52.144;8.624;2024-03-02T02:29:10;9.25;;;6.35;;
62554;SDS011;48610;52.144;8.624;2024-03-02T02:32:10;8.75;;;6.68;;
62554;SDS011;48610;52.144;8.624;2024-03-02T02:35:11;9.40;;;6.55;;
62554;SDS011;48610;52.144;8.624;2024-03-02T02:38:12;9.13;;;6.18;;
62554;SDS011;48610;52.144;8.624;2024-03-02T02:41:13;11.43;;;5.93;;
62554;SDS011;48610;52.144;8.624;2024-03-02T02:44:13;8.02;;;5.70;;
62554;SDS011;48610;52.144;8.624;2024-03-02T02:47:14;8.45;;;6.05;;
62554;SDS011;48610;52.144;8.624;2024-03-02T02:50:15;7.93;;;5.50;;
62554;SDS011;48610;52.144;8.624;2024-03-02T02:53:15;8.88;;;6.07;;
62554;SDS011;48610;52.144;8.624;2024-03-02T02:56:16;11.45;;;5.97;;
62554;SDS011;48610;52.144;8.624;2024-03-02T02:59:17;9.50;;;5.63;;
62554;SDS011;48610;52.144;8.624;2024-03-02T03:02:18;7.70;;;5.55;;
62554;SDS011;48610;52.144;8.624;2024-03-02T03:05:18;7.95;;;5.20;;
62554;SDS011;48610;52.144;8.624;2024-03-02T03:08:19;7.13;;;5.70;;
62554;SDS011;48610;52.144;8.624;2024-03-02T03:11:20;7.65;;;5.88;;
62554;SDS011;48610;52.144;8.624;2024-03-02T03:14:22;10.95;;;6.13;;
62554;SDS011;48610;52.144;8.624;2024-03-02T03:17:23;7.55;;;5.22;;
62554;SDS011;48610;52.144;8.624;2024-03-02T03:20:23;7.88;;;5.38;;
62554;SDS011;48610;52.144;8.624;2024-03-02T03:23:24;7.28;;;3.63;;
62554;SDS011;48610;52.144;8.624;2024-03-02T03:26:25;7.78;;;5.10;;
62554;SDS011;48610;52.144;8.624;2024-03-02T03:29:26;7.55;;;5.20;;
62554;SDS011;48610;52.144;8.624;2024-03-02T03:32:27;4.32;;;3.42;;
62554;SDS011;48610;52.144;8.624;2024-03-02T03:35:27;12.00;;;5.85;;
62554;SDS011;48610;52.144;8.624;2024-03-02T03:38:28;9.65;;;5.63;;
62554;SDS011;48610;52.144;8.624;2024-03-02T03:41:28;8.35;;;4.47;;
62554;SDS011;48610;52.144;8.624;2024-03-02T03:44:29;10.07;;;6.07;;
62554;SDS011;48610;52.144;8.624;2024-03-02T03:47:31;8.57;;;5.88;;
62554;SDS011;48610;52.144;8.624;2024-03-02T03:50:32;3.95;;;3.53;;
62554;SDS011;48610;52.144;8.624;2024-03-02T03:53:32;9.82;;;6.10;;
62554;SDS011;48610;52.144;8.624;2024-03-02T03:56:33;8.90;;;6.00;;
62554;SDS011;48610;52.144;8.624;2024-03-02T03:59:33;7.38;;;4.85;;
62554;SDS011;48610;52.144;8.624;2024-03-02T04:02:34;7.57;;;5.38;;
62554;SDS011;48610;52.144;8.624;2024-03-02T04:05:35;10.82;;;6.38;;
62554;SDS011;48610;52.144;8.624;2024-03-02T04:08:36;6.45;;;4.35;;
62554;SDS011;48610;52.144;8.624;2024-03-02T04:11:36;9.88;;;6.63;;
62554;SDS011;48610;52.144;8.624;2024-03-02T04:14:37;9.55;;;6.90;;
62554;SDS011;48610;52.144;8.624;2024-03-02T04:17:37;13.70;;;6.47;;
62554;SDS011;48610;52.144;8.624;2024-03-02T04:20:38;9.75;;;6.57;;
62554;SDS011;48610;52.144;8.624;2024-03-02T04:23:39;11.30;;;6.53;;
62554;SDS011;48610;52.144;8.624;2024-03-02T04:26:39;10.57;;;6.40;;
62554;SDS011;48610;52.144;8.624;2024-03-02T04:29:40;12.32;;;7.07;;
62554;SDS011;48610;52.144;8.624;2024-03-02T04:32:40;8.45;;;6.30;;
62554;SDS011;48610;52.144;8.624;2024-03-02T04:35:41;13.52;;;8.15;;
62554;SDS011;48610;52.144;8.624;2024-03-02T04:38:42;10.68;;;6.45;;
62554;SDS011;48610;52.144;8.624;2024-03-02T04:41:42;7.82;;;6.00;;
62554;SDS011;48610;52.144;8.624;2024-03-02T04:44:43;10.48;;;6.75;;
62554;SDS011;48610;52.144;8.624;2024-03-02T04:47:44;9.93;;;6.63;;
62554;SDS011;48610;52.144;8.624;2024-03-02T04:50:44;13.85;;;7.25;;
62554;SDS011;48610;52.144;8.624;2024-03-02T04:53:45;9.55;;;5.85;;
62554;SDS011;48610;52.144;8.624;2024-03-02T04:56:45;12.15;;;7.55;;
62554;SDS011;48610;52.144;8.624;2024-03-02T04:59:55;10.55;;;7.00;;
62554;SDS011;48610;52.144;8.624;2024-03-02T05:02:55;10.77;;;7.97;;
62554;SDS011;48610;52.144;8.624;2024-03-02T05:05:56;12.07;;;7.82;;
62554;SDS011;48610;52.144;8.624;2024-03-02T05:08:56;9.25;;;6.18;;
62554;SDS011;48610;52.144;8.624;2024-03-02T05:11:57;12.40;;;7.93;;
62554;SDS011;48610;52.144;8.624;2024-03-02T05:18:24;12.23;;;6.38;;
62554;SDS011;48610;52.144;8.624;2024-03-02T05:21:25;9.13;;;6.25;;
62554;SDS011;48610;52.144;8.624;2024-03-02T05:24:25;10.27;;;6.72;;
62554;SDS011;48610;52.144;8.624;2024-03-02T05:27:29;10.18;;;6.70;;
62554;SDS011;48610;52.144;8.624;2024-03-02T05:30:29;8.85;;;5.68;;
62554;SDS011;48610;52.144;8.624;2024-03-02T05:33:30;10.68;;;6.65;;
62554;SDS011;48610;52.144;8.624;2024-03-02T05:36:33;8.52;;;6.05;;
62554;SDS011;48610;52.144;8.624;2024-03-02T05:39:33;12.07;;;7.57;;
62554;SDS011;48610;52.144;8.624;2024-03-02T05:42:34;9.05;;;6.00;;
62554;SDS011;48610;52.144;8.624;2024-03-02T05:45:35;11.52;;;7.13;;
62554;SDS011;48610;52.144;8.624;2024-03-02T05:48:35;9.20;;;6.43;;
62554;SDS011;48610;52.144;8.624;2024-03-02T05:51:36;10.88;;;6.53;;
62554;SDS011;48610;52.144;8.624;2024-03-02T05:54:36;10.50;;;6.57;;
62554;SDS011;48610;52.144;8.624;2024-03-02T05:57:37;11.15;;;7.35;;
62554;SDS011;48610;52.144;8.624;2024-03-02T06:00:40;13.65;;;7.50;;
62554;SDS011;48610;52.144;8.624;2024-03-02T06:03:41;13.23;;;7.32;;
62554;SDS011;48610;52.144;8.624;2024-03-02T06:06:41;11.88;;;6.95;;
62554;SDS011;48610;52.144;8.624;2024-03-02T06:09:42;15.13;;;8.88;;
62554;SDS011;48610;52.144;8.624;2024-03-02T06:12:44;11.05;;;7.65;;
62554;SDS011;48610;52.144;8.624;2024-03-02T06:15:44;13.60;;;7.22;;
62554;SDS011;48610;52.144;8.624;2024-03-02T06:18:45;14.60;;;8.32;;
62554;SDS011;48610;52.144;8.624;2024-03-02T06:21:45;10.43;;;7.45;;
62554;SDS011;48610;52.144;8.624;2024-03-02T06:24:46;13.57;;;7.00;;
62554;SDS011;48610;52.144;8.624;2024-03-02T06:27:46;14.32;;;8.32;;
62554;SDS011;48610;52.144;8.624;2024-03-02T06:30:47;13.93;;;8.43;;
62554;SDS011;48610;52.144;8.624;2024-03-02T06:33:48;13.50;;;8.27;;
62554;SDS011;48610;52.144;8.624;2024-03-02T06:36:48;14.40;;;8.10;;
62554;SDS011;48610;52.144;8.624;2024-03-02T06:39:49;14.38;;;8.70;;
62554;SDS011;48610;52.144;8.624;2024-03-02T06:42:49;6.82;;;4.72;;
62554;SDS011;48610;52.144;8.624;2024-03-02T06:45:50;13.68;;;8.80;;
62554;SDS011;48610;52.144;8.624;2024-03-02T06:48:51;13.52;;;7.85;;
62554;SDS011;48610;52.144;8.624;2024-03-02T06:51:51;11.48;;;8.02;;
62554;SDS011;48610;52.144;8.624;2024-03-02T06:54:52;14.30;;;8.23;;
62554;SDS011;48610;52.144;8.624;2024-03-02T06:57:53;11.73;;;7.40;;
62554;SDS011;48610;52.144;8.624;2024-03-02T07:00:53;15.38;;;8.20;;
62554;SDS011;48610;52.144;8.624;2024-03-02T07:03:54;15.27;;;8.05;;
62554;SDS011;48610;52.144;8.624;2024-03-02T07:06:54;13.18;;;7.97;;
62554;SDS011;48610;52.144;8.624;2024-03-02T07:09:55;12.77;;;8.15;;
62554;SDS011;48610;52.144;8.624;2024-03-02T07:12:55;18.13;;;8.95;;
62554;SDS011;48610;52.144;8.624;2024-03-02T07:15:56;15.70;;;10.18;;
62554;SDS011;48610;52.144;8.624;2024-03-02T07:19:02;14.50;;;9.80;;
62554;SDS011;48610;52.144;8.624;2024-03-02T07:22:05;19.30;;;10.07;;
62554;SDS011;48610;52.144;8.624;2024-03-02T07:25:07;13.93;;;8.27;;
62554;SDS011;48610;52.144;8.624;2024-03-02T07:28:08;10.90;;;7.07;;
62554;SDS011;48610;52.144;8.624;2024-03-02T07:31:09;12.13;;;7.95;;
62554;SDS011;48610;52.144;8.624;2024-03-02T07:34:09;16.80;;;9.50;;
62554;SDS011;48610;52.144;8.624;2024-03-02T07:37:10;17.50;;;9.75;;
62554;SDS011;48610;52.144;8.624;2024-03-02T07:40:11;16.63;;;8.95;;
62554;SDS011;48610;52.144;8.624;2024-03-02T07:43:12;15.60;;;9.52;;
62554;SDS011;48610;52.144;8.624;2024-03-02T07:46:12;14.50;;;9.00;;
62554;SDS011;48610;52.144;8.624;2024-03-02T07:49:13;17.95;;;9.93;;
62554;SDS011;48610;52.144;8.624;2024-03-02T07:52:14;14.13;;;8.70;;
62554;SDS011;48610;52.144;8.624;2024-03-02T07:55:14;13.02;;;8.07;;
62554;SDS011;48610;52.144;8.624;2024-03-02T07:58:15;13.65;;;8.52;;
62554;SDS011;48610;52.144;8.624;2024-03-02T08:01:18;19.75;;;10.35;;
62554;SDS011;48610;52.144;8.624;2024-03-02T08:04:18;16.27;;;8.50;;
62554;SDS011;48610;52.144;8.624;2024-03-02T08:07:19;14.50;;;8.20;;
62554;SDS011;48610;52.144;8.624;2024-03-02T08:10:19;14.45;;;8.88;;
62554;SDS011;48610;52.144;8.624;2024-03-02T08:13:20;17.42;;;9.50;;
62554;SDS011;48610;52.144;8.624;2024-03-02T08:16:21;13.00;;;8.77;;
62554;SDS011;48610;52.144;8.624;2024-03-02T08:19:23;16.02;;;10.35;;
62554;SDS011;48610;52.144;8.624;2024-03-02T08:22:24;12.15;;;8.10;;
62554;SDS011;48610;52.144;8.624;2024-03-02T08:25:27;9.65;;;6.25;;
62554;SDS011;48610;52.144;8.624;2024-03-02T08:28:27;12.57;;;8.55;;
62554;SDS011;48610;52.144;8.624;2024-03-02T08:31:28;21.88;;;8.88;;
62554;SDS011;48610;52.144;8.624;2024-03-02T08:34:29;15.18;;;8.93;;
62554;SDS011;48610;52.144;8.624;2024-03-02T08:37:29;13.52;;;7.93;;
62554;SDS011;48610;52.144;8.624;2024-03-02T08:40:30;15.38;;;8.82;;
62554;SDS011;48610;52.144;8.624;2024-03-02T08:43:31;12.18;;;7.80;;
62554;SDS011;48610;52.144;8.624;2024-03-02T08:46:31;14.65;;;8.77;;
62554;SDS011;48610;52.144;8.624;2024-03-02T08:49:32;12.10;;;7.15;;
62554;SDS011;48610;52.144;8.624;2024-03-02T08:52:33;9.38;;;6.10;;
62554;SDS011;48610;52.144;8.624;2024-03-02T08:55:33;13.50;;;7.88;;
62554;SDS011;48610;52.144;8.624;2024-03-02T08:58:34;13.85;;;8.15;;
62554;SDS011;48610;52.144;8.624;2024-03-02T09:01:35;13.13;;;7.38;;
62554;SDS011;48610;52.144;8.624;2024-03-02T09:04:41;9.68;;;6.68;;
62554;SDS011;48610;52.144;8.624;2024-03-02T09:07:42;13.75;;;7.72;;
62554;SDS011;48610;52.144;8.624;2024-03-02T09:10:43;15.75;;;7.93;;
62554;SDS011;48610;52.144;8.624;2024-03-02T09:13:43;10.98;;;7.78;;
62554;SDS011;48610;52.144;8.624;2024-03-02T09:16:44;9.63;;;6.00;;
62554;SDS011;48610;52.144;8.624;2024-03-02T09:19:45;16.60;;;7.25;;
62554;SDS011;48610;52.144;8.624;2024-03-02T09:22:45;12.52;;;6.18;;
62554;SDS011;48610;52.144;8.624;2024-03-02T09:25:47;9.00;;;6.53;;
62554;SDS011;48610;52.144;8.624;2024-03-02T09:28:48;10.15;;;6.90;;
62554;SDS011;48610;52.144;8.624;2024-03-02T09:31:48;9.07;;;6.57;;
62554;SDS011;48610;52.144;8.624;2024-03-02T09:34:50;10.88;;;6.13;;
62554;SDS011;48610;52.144;8.624;2024-03-02T09:37:52;8.82;;;6.05;;
62554;SDS011;48610;52.144;8.624;2024-03-02T09:40:52;9.95;;;6.88;;
62554;SDS011;48610;52.144;8.624;2024-03-02T09:43:53;9.75;;;7.20;;
62554;SDS011;48610;52.144;8.624;2024-03-02T09:46:55;12.07;;;6.38;;
62554;SDS011;48610;52.144;8.624;2024-03-02T09:49:56;11.25;;;6.45;;
62554;SDS011;48610;52.144;8.624;2024-03-02T09:52:56;8.38;;;5.93;;
62554;SDS011;48610;52.144;8.624;2024-03-02T09:55:58;12.18;;;5.72;;
62554;SDS011;48610;52.144;8.624;2024-03-02T09:58:59;15.68;;;6.55;;
62554;SDS011;48610;52.144;8.624;2024-03-02T10:02:01;9.05;;;6.00;;
62554;SDS011;48610;52.144;8.624;2024-03-02T10:05:03;9.55;;;5.95;;
62554;SDS011;48610;52.144;8.624;2024-03-02T10:08:04;10.85;;;6.28;;
62554;SDS011;48610;52.144;8.624;2024-03-02T10:11:04;8.57;;;5.55;;
62554;SDS011;48610;52.144;8.624;2024-03-02T10:14:10;11.30;;;6.28;;
62554;SDS011;48610;52.144;8.624;2024-03-02T10:17:12;8.57;;;5.68;;
62554;SDS011;48610;52.144;8.624;2024-03-02T10:20:26;10.32;;;5.65;;
62554;SDS011;48610;52.144;8.624;2024-03-02T10:23:32;8.93;;;5.60;;
62554;SDS011;48610;52.144;8.624;2024-03-02T10:26:33;11.05;;;5.55;;
62554;SDS011;48610;52.144;8.624;2024-03-02T10:29:33;8.63;;;4.53;;
62554;SDS011;48610;52.144;8.624;2024-03-02T10:32:37;5.15;;;3.97;;
62554;SDS011;48610;52.144;8.624;2024-03-02T10:35:38;5.88;;;4.30;;
62554;SDS011;48610;52.144;8.624;2024-03-02T10:38:40;6.13;;;3.88;;
62554;SDS011;48610;52.144;8.624;2024-03-02T10:41:41;6.13;;;4.25;;
62554;SDS011;48610;52.144;8.624;2024-03-02T10:44:42;5.03;;;3.45;;
62554;SDS011;48610;52.144;8.624;2024-03-02T10:47:43;5.78;;;3.97;;
62554;SDS011;48610;52.144;8.624;2024-03-02T10:50:44;6.22;;;4.20;;
62554;SDS011;48610;52.144;8.624;2024-03-02T10:53:45;7.63;;;4.35;;
62554;SDS011;48610;52.144;8.624;2024-03-02T10:56:46;6.88;;;3.83;;
62554;SDS011;48610;52.144;8.624;2024-03-02T10:59:51;5.00;;;3.47;;
62554;SDS011;48610;52.144;8.624;2024-03-02T11:02:56;7.53;;;4.60;;
62554;SDS011;48610;52.144;8.624;2024-03-02T11:06:01;6.03;;;4.18;;
62554;SDS011;48610;52.144;8.624;2024-03-02T11:09:07;7.50;;;4.50;;
62554;SDS011;48610;52.144;8.624;2024-03-02T11:12:13;5.57;;;3.63;;
62554;SDS011;48610;52.144;8.624;2024-03-02T11:15:19;5.45;;;4.28;;
62554;SDS011;48610;52.144;8.624;2024-03-02T11:18:25;7.05;;;4.50;;
62554;SDS011;48610;52.144;8.624;2024-03-02T11:21:27;6.93;;;4.47;;
62554;SDS011;48610;52.144;8.624;2024-03-02T11:24:28;5.78;;;4.15;;
62554;SDS011;48610;52.144;8.624;2024-03-02T11:33:46;6.35;;;4.45;;
62554;SDS011;48610;52.144;8.624;2024-03-02T11:36:47;5.85;;;3.90;;
62554;SDS011;48610;52.144;8.624;2024-03-02T11:39:50;6.43;;;3.88;;
62554;SDS011;48610;52.144;8.624;2024-03-02T11:42:51;3.88;;;3.30;;
62554;SDS011;48610;52.144;8.624;2024-03-02T11:46:00;7.18;;;3.97;;
62554;SDS011;48610;52.144;8.624;2024-03-02T11:49:04;5.03;;;3.80;;
62554;SDS011;48610;52.144;8.624;2024-03-02T11:52:05;4.95;;;3.72;;
62554;SDS011;48610;52.144;8.624;2024-03-02T11:55:07;5.00;;;3.60;;
62554;SDS011;48610;52.144;8.624;2024-03-02T11:58:09;5.28;;;4.10;;
62554;SDS011;48610;52.144;8.624;2024-03-02T12:01:10;6.45;;;4.15;;
62554;SDS011;48610;52.144;8.624;2024-03-02T12:04:11;12.38;;;4.10;;
62554;SDS011;48610;52.144;8.624;2024-03-02T12:07:11;9.48;;;3.40;;
62554;SDS011;48610;52.144;8.624;2024-03-02T12:10:12;8.32;;;4.22;;
62554;SDS011;48610;52.144;8.624;2024-03-02T12:13:15;4.97;;;4.03;;
62554;SDS011;48610;52.144;8.624;2024-03-02T12:16:22;6.88;;;3.53;;
62554;SDS011;48610;52.144;8.624;2024-03-02T12:19:24;5.95;;;3.70;;
62554;SDS011;48610;52.144;8.624;2024-03-02T12:22:26;5.40;;;3.47;;
62554;SDS011;48610;52.144;8.624;2024-03-02T12:25:26;4.97;;;3.85;;
62554;SDS011;48610;52.144;8.624;2024-03-02T12:28:27;5.03;;;3.40;;
62554;SDS011;48610;52.144;8.624;2024-03-02T12:31:28;5.65;;;3.90;;
62554;SDS011;48610;52.144;8.624;2024-03-02T12:34:28;6.45;;;3.83;;
62554;SDS011;48610;52.144;8.624;2024-03-02T12:37:29;5.07;;;3.58;;
62554;SDS011;48610;52.144;8.624;2024-03-02T12:40:30;5.10;;;3.55;;
62554;SDS011;48610;52.144;8.624;2024-03-02T12:43:32;5.25;;;3.47;;
62554;SDS011;48610;52.144;8.624;2024-03-02T12:46:32;6.20;;;3.70;;
62554;SDS011;48610;52.144;8.624;2024-03-02T12:49:33;4.45;;;3.47;;
62554;SDS011;48610;52.144;8.624;2024-03-02T12:52:35;3.92;;;3.33;;
62554;SDS011;48610;52.144;8.624;2024-03-02T12:55:36;4.70;;;3.42;;
62554;SDS011;48610;52.144;8.624;2024-03-02T12:58:39;4.65;;;3.10;;
62554;SDS011;48610;52.144;8.624;2024-03-02T13:01:49;3.90;;;2.95;;
62554;SDS011;48610;52.144;8.624;2024-03-02T13:04:53;4.30;;;3.20;;
62554;SDS011;48610;52.144;8.624;2024-03-02T13:07:54;3.67;;;2.95;;
62554;SDS011;48610;52.144;8.624;2024-03-02T13:10:55;3.72;;;3.17;;
62554;SDS011;48610;52.144;8.624;2024-03-02T13:13:55;5.50;;;3.47;;
62554;SDS011;48610;52.144;8.624;2024-03-02T13:16:56;5.13;;;3.60;;
62554;SDS011;48610;52.144;8.624;2024-03-02T13:19:58;4.93;;;3.55;;
62554;SDS011;48610;52.144;8.624;2024-03-02T13:22:59;4.28;;;3.25;;
62554;SDS011;48610;52.144;8.624;2024-03-02T13:26:00;3.70;;;3.00;;
62554;SDS011;48610;52.144;8.624;2024-03-02T13:29:01;4.25;;;3.17;;
62554;SDS011;48610;52.144;8.624;2024-03-02T13:32:01;6.80;;;3.40;;
62554;SDS011;48610;52.144;8.624;2024-03-02T13:35:02;4.00;;;3.33;;
62554;SDS011;48610;52.144;8.624;2024-03-02T13:38:03;4.28;;;2.90;;
62554;SDS011;48610;52.144;8.624;2024-03-02T13:41:04;4.20;;;3.05;;
62554;SDS011;48610;52.144;8.624;2024-03-02T13:44:04;3.53;;;2.78;;
62554;SDS011;48610;52.144;8.624;2024-03-02T13:47:05;5.25;;;2.83;;
62554;SDS011;48610;52.144;8.624;2024-03-02T13:50:06;3.90;;;3.17;;
62554;SDS011;48610;52.144;8.624;2024-03-02T13:53:07;2.90;;;2.53;;
62554;SDS011;48610;52.144;8.624;2024-03-02T13:56:08;3.13;;;2.53;;
62554;SDS011;48610;52.144;8.624;2024-03-02T13:59:09;3.00;;;2.70;;
62554;SDS011;48610;52.144;8.624;2024-03-02T14:02:10;3.42;;;2.90;;
62554;SDS011;48610;52.144;8.624;2024-03-02T14:05:11;4.07;;;2.75;;
62554;SDS011;48610;52.144;8.624;2024-03-02T14:08:13;3.42;;;2.50;;
62554;SDS011;48610;52.144;8.624;2024-03-02T14:11:14;2.97;;;2.53;;
62554;SDS011;48610;52.144;8.624;2024-03-02T14:14:16;3.90;;;2.70;;
62554;SDS011;48610;52.144;8.624;2024-03-02T14:17:16;3.47;;;2.63;;
62554;SDS011;48610;52.144;8.624;2024-03-02T14:20:17;3.08;;;2.28;;
62554;SDS011;48610;52.144;8.624;2024-03-02T14:23:21;3.50;;;2.40;;
62554;SDS011;48610;52.144;8.624;2024-03-02T14:26:22;2.42;;;2.17;;
62554;SDS011;48610;52.144;8.624;2024-03-02T14:29:23;2.38;;;2.17;;
62554;SDS011;48610;52.144;8.624;2024-03-02T14:32:23;2.30;;;2.10;;
62554;SDS011;48610;52.144;8.624;2024-03-02T14:35:24;2.35;;;2.10;;
62554;SDS011;48610;52.144;8.624;2024-03-02T14:38:25;2.17;;;1.98;;
62554;SDS011;48610;52.144;8.624;2024-03-02T14:41:25;2.10;;;1.85;;
62554;SDS011;48610;52.144;8.624;2024-03-02T14:44:26;2.35;;;2.15;;
62554;SDS011;48610;52.144;8.624;2024-03-02T14:47:26;2.58;;;2.22;;
62554;SDS011;48610;52.144;8.624;2024-03-02T14:50:27;3.38;;;2.47;;
62554;SDS011;48610;52.144;8.624;2024-03-02T14:53:28;2.13;;;1.92;;
62554;SDS011;48610;52.144;8.624;2024-03-02T14:56:29;1.98;;;1.77;;
62554;SDS011;48610;52.144;8.624;2024-03-02T14:59:29;3.50;;;1.68;;
62554;SDS011;48610;52.144;8.624;2024-03-02T15:02:30;2.25;;;1.58;;
62554;SDS011;48610;52.144;8.624;2024-03-02T15:05:30;2.70;;;2.30;;
62554;SDS011;48610;52.144;8.624;2024-03-02T15:08:31;1.80;;;1.70;;
62554;SDS011;48610;52.144;8.624;2024-03-02T15:11:32;2.85;;;1.98;;
62554;SDS011;48610;52.144;8.624;2024-03-02T15:14:33;2.63;;;2.20;;
62554;SDS011;48610;52.144;8.624;2024-03-02T15:17:33;2.42;;;2.00;;
62554;SDS011;48610;52.144;8.624;2024-03-02T15:20:34;4.43;;;3.00;;
62554;SDS011;48610;52.144;8.624;2024-03-02T15:23:35;4.15;;;3.00;;
62554;SDS011;48610;52.144;8.624;2024-03-02T15:26:35;5.00;;;3.28;;
62554;SDS011;48610;52.144;8.624;2024-03-02T15:29:36;3.40;;;2.70;;
62554;SDS011;48610;52.144;8.624;2024-03-02T15:32:36;4.18;;;3.30;;
62554;SDS011;48610;52.144;8.624;2024-03-02T15:35:38;4.22;;;3.00;;
62554;SDS011;48610;52.144;8.624;2024-03-02T15:38:39;3.08;;;2.70;;
62554;SDS011;48610;52.144;8.624;2024-03-02T15:41:40;3.22;;;2.63;;
62554;SDS011;48610;52.144;8.624;2024-03-02T15:44:43;5.05;;;2.70;;
62554;SDS011;48610;52.144;8.624;2024-03-02T15:47:44;4.75;;;2.80;;
62554;SDS011;48610;52.144;8.624;2024-03-02T15:50:44;3.42;;;2.97;;
62554;SDS011;48610;52.144;8.624;2024-03-02T15:53:45;3.80;;;2.97;;
62554;SDS011;48610;52.144;8.624;2024-03-02T15:56:46;3.50;;;2.15;;
62554;SDS011;48610;52.144;8.624;2024-03-02T15:59:46;4.80;;;3.30;;
62554;SDS011;48610;52.144;8.624;2024-03-02T16:02:47;4.22;;;2.60;;
62554;SDS011;48610;52.144;8.624;2024-03-02T16:05:47;3.05;;;2.50;;
62554;SDS011;48610;52.144;8.624;2024-03-02T16:08:48;3.13;;;2.42;;
62554;SDS011;48610;52.144;8.624;2024-03-02T16:11:49;4.00;;;2.70;;
62554;SDS011;48610;52.144;8.624;2024-03-02T16:14:49;3.92;;;2.38;;
62554;SDS011;48610;52.144;8.624;2024-03-02T16:17:50;3.17;;;2.25;;
62554;SDS011;48610;52.144;8.624;2024-03-02T16:20:50;3.60;;;2.58;;
62554;SDS011;48610;52.144;8.624;2024-03-02T16:23:51;3.35;;;2.40;;
62554;SDS011;48610;52.144;8.624;2024-03-02T16:26:52;3.67;;;2.60;;
62554;SDS011;48610;52.144;8.624;2024-03-02T16:29:53;5.32;;;2.80;;
62554;SDS011;48610;52.144;8.624;2024-03-02T16:32:58;3.70;;;2.70;;
62554;SDS011;48610;52.144;8.624;2024-03-02T16:35:59;3.50;;;2.70;;
62554;SDS011;48610;52.144;8.624;2024-03-02T16:39:00;4.15;;;2.90;;
62554;SDS011;48610;52.144;8.624;2024-03-02T16:42:00;3.05;;;2.60;;
62554;SDS011;48610;52.144;8.624;2024-03-02T16:45:02;3.90;;;2.50;;
62554;SDS011;48610;52.144;8.624;2024-03-02T16:48:04;3.78;;;2.70;;
62554;SDS011;48610;52.144;8.624;2024-03-02T16:51:05;5.70;;;2.90;;
62554;SDS011;48610;52.144;8.624;2024-03-02T16:54:05;4.43;;;3.10;;
62554;SDS011;48610;52.144;8.624;2024-03-02T16:57:06;3.35;;;2.72;;
62554;SDS011;48610;52.144;8.624;2024-03-02T17:00:07;4.75;;;2.90;;
62554;SDS011;48610;52.144;8.624;2024-03-02T17:03:09;3.88;;;2.90;;
62554;SDS011;48610;52.144;8.624;2024-03-02T17:06:09;4.45;;;2.70;;
62554;SDS011;48610;52.144;8.624;2024-03-02T17:09:10;3.22;;;2.53;;
62554;SDS011;48610;52.144;8.624;2024-03-02T17:12:11;5.22;;;3.22;;
62554;SDS011;48610;52.144;8.624;2024-03-02T17:15:12;4.53;;;2.97;;
62554;SDS011;48610;52.144;8.624;2024-03-02T17:18:12;4.50;;;3.00;;
62554;SDS011;48610;52.144;8.624;2024-03-02T17:21:13;5.28;;;3.38;;
62554;SDS011;48610;52.144;8.624;2024-03-02T17:24:13;5.40;;;3.35;;
62554;SDS011;48610;52.144;8.624;2024-03-02T17:27:14;4.47;;;3.03;;
62554;SDS011;48610;52.144;8.624;2024-03-02T17:30:14;5.97;;;3.47;;
62554;SDS011;48610;52.144;8.624;2024-03-02T17:33:15;4.18;;;2.80;;
62554;SDS011;48610;52.144;8.624;2024-03-02T17:36:16;4.55;;;3.03;;
62554;SDS011;48610;52.144;8.624;2024-03-02T17:39:16;5.25;;;3.20;;
62554;SDS011;48610;52.144;8.624;2024-03-02T17:42:17;4.18;;;2.80;;
62554;SDS011;48610;52.144;8.624;2024-03-02T17:45:17;6.65;;;2.95;;
62554;SDS011;48610;52.144;8.624;2024-03-02T17:48:18;6.28;;;3.08;;
62554;SDS011;48610;52.144;8.624;2024-03-02T17:51:21;3.78;;;2.70;;
62554;SDS011;48610;52.144;8.624;2024-03-02T17:54:21;4.95;;;3.05;;
62554;SDS011;48610;52.144;8.624;2024-03-02T17:57:22;4.10;;;3.28;;
62554;SDS011;48610;52.144;8.624;2024-03-02T18:00:23;3.83;;;2.80;;
62554;SDS011;48610;52.144;8.624;2024-03-02T18:03:24;6.25;;;4.10;;
62554;SDS011;48610;52.144;8.624;2024-03-02T18:06:25;55.40;;;24.30;;
62554;SDS011;48610;52.144;8.624;2024-03-02T18:09:25;153.80;;;49.47;;
62554;SDS011;48610;52.144;8.624;2024-03-02T18:12:26;108.95;;;37.25;;
62554;SDS011;48610;52.144;8.624;2024-03-02T18:15:26;50.45;;;17.40;;
62554;SDS011;48610;52.144;8.624;2024-03-02T18:18:27;21.17;;;8.80;;